Time;durP1;ratioP1;P1;durP2;ratioP2;P2;SDS_P1;SDS_P2;PMS_P1;PMS_P2;Temp;Humidity;BMP_temperature;BMP_pressure;BME280_temperature;BME280_humidity;BME280_pressure;Samples;Min_cycle;Max_cycle;Signal;HPM_P1;HPM_P2
2023/06/18 00:00:56;;;;;;;;;;;;;;;-140.72;0.00;52157.53;5071451;28;20385;-70
2023/06/18 00:03:21;;;;;;;;;;;;;;;-140.72;0.00;52163.59;5071969;28;19952;-70
2023/06/18 00:05:46;;;;;;;;;;;;;;;-140.72;0.00;52196.06;5071005;28;19931;-70
2023/06/18 00:08:12;;;;;;;;;;;;;;;-140.72;0.00;52175.78;5076612;28;20291;-70
2023/06/18 00:10:37;;;;;;;;;;;;;;;-140.72;0.00;52143.31;5073560;28;19928;-70
2023/06/18 00:13:02;;;;;;;;;;;;;;;-140.72;0.00;52216.34;5064843;28;19966;-69
2023/06/18 00:15:27;;;;;;;;;;;;;;;-140.72;0.00;52204.19;5069827;28;19927;-70
2023/06/18 00:17:53;;;;;;;;;;;;;;;-140.72;0.00;52173.75;5071181;28;19920;-70
2023/06/18 00:20:18;;;;;;;;;;;;;;;-140.72;0.00;52159.56;5071035;28;19927;-70
2023/06/18 00:22:44;;;;;;;;;;;;;;;-140.72;0.00;52198.09;5071754;28;19920;-70
2023/06/18 00:25:09;;;;;;;;;;;;;;;-140.72;0.00;52194.03;5070530;28;20465;-69
2023/06/18 00:27:35;;;;;;;;;;;;;;;-140.72;0.00;52163.59;5081978;28;20231;-70
2023/06/18 00:30:00;;;;;;;;;;;;;;;-140.72;0.00;52194.03;5073852;28;19927;-70
2023/06/18 00:32:26;;;;;;;;;;;;;;;-140.72;0.00;52171.72;5072379;28;20373;-69
2023/06/18 00:34:53;;;;;;;;;;;;;;;-140.72;0.00;52196.06;5069425;28;19978;-70
2023/06/18 00:37:20;;;;;;;;;;;;;;;-140.72;0.00;52157.53;5072940;28;19920;-69
2023/06/18 00:39:45;;;;;;;;;;;;;;;-140.72;0.00;52198.09;5075455;28;20015;-70
2023/06/18 00:42:11;;;;;;;;;;;;;;;-140.72;0.00;52169.69;5072892;28;19928;-70
2023/06/18 00:44:40;;;;;;;;;;;;;;;-140.72;0.00;52171.72;5072162;28;20024;-70
2023/06/18 00:47:06;;;;;;;;;;;;;;;-140.72;0.00;52194.03;5072338;28;20302;-70
2023/06/18 00:49:31;;;;;;;;;;;;;;;-140.72;0.00;52210.28;5073646;28;19925;-70
2023/06/18 00:51:57;;;;;;;;;;;;;;;-140.72;0.00;52189.97;5072285;28;19920;-70
2023/06/18 00:54:23;;;;;;;;;;;;;;;-140.72;0.00;52220.41;5072961;28;19932;-70
2023/06/18 00:56:52;;;;;;;;;;;;;;;-140.72;0.00;52163.59;5073483;28;20323;-70
2023/06/18 00:59:24;;;;;;;;;;;;;;;-140.72;0.00;52192.00;5068184;28;19923;-70
2023/06/18 01:01:51;;;;;;;;;;;;;;;-140.72;0.00;52192.00;5068826;28;20362;-70
2023/06/18 01:04:17;;;;;;;;;;;;;;;-140.72;0.00;52183.91;5069207;28;19921;-70
2023/06/18 01:06:43;;;;;;;;;;;;;;;-140.72;0.00;52167.66;5071926;28;19924;-70
2023/06/18 01:09:12;;;;;;;;;;;;;;;-140.72;0.00;52177.81;5071344;28;19928;-70
2023/06/18 01:11:40;;;;;;;;;;;;;;;-140.72;0.00;52232.59;5070153;28;19942;-70
2023/06/18 01:14:09;;;;;;;;;;;;;;;-140.72;0.00;52208.25;5071639;28;19931;-69
2023/06/18 01:16:46;;;;;;;;;;;;;;;-140.72;0.00;52212.31;5075183;28;20302;-69
2023/06/18 01:19:27;;;;;;;;;;;;;;;-140.72;0.00;52244.78;5076263;28;20349;-69
2023/06/18 01:21:55;;;;;;;;;;;;;;;-140.72;0.00;52212.31;5076237;28;19957;-69
2023/06/18 01:24:24;;;;;;;;;;;;;;;-140.72;0.00;52216.34;5071173;28;19931;-70
2023/06/18 01:26:56;;;;;;;;;;;;;;;-140.72;0.00;52210.28;5071322;28;20246;-69
2023/06/18 01:29:24;;;;;;;;;;;;;;;-140.72;0.00;52196.06;5066648;28;19982;-70
2023/06/18 01:31:51;;;;;;;;;;;;;;;-140.72;0.00;52232.59;5069285;28;19925;-70
2023/06/18 01:34:17;;;;;;;;;;;;;;;-140.72;0.00;52218.38;5069791;28;20015;-72
2023/06/18 01:36:56;;;;;;;;;;;;;;;-140.72;0.00;52224.47;5073865;28;19959;-70
2023/06/18 01:39:35;;;;;;;;;;;;;;;-140.72;0.00;52222.44;5061069;28;19920;-70
2023/06/18 01:42:06;;;;;;;;;;;;;;;-140.72;0.00;52226.50;5071285;28;19921;-70
2023/06/18 01:44:35;;;;;;;;;;;;;;;-140.72;0.00;52194.03;5069385;28;19938;-70
2023/06/18 01:47:00;;;;;;;;;;;;;;;-140.72;0.00;52222.44;5078085;28;19928;-70
2023/06/18 01:49:26;;;;;;;;;;;;;;;-140.72;0.00;52228.53;5068763;28;20296;-70
2023/06/18 01:51:52;;;;;;;;;;;;;;;-140.72;0.00;52192.00;5078048;28;20004;-70
2023/06/18 01:54:18;;;;;;;;;;;;;;;-140.72;0.00;52216.34;5076910;28;19935;-70
2023/06/18 01:56:43;;;;;;;;;;;;;;;-140.72;0.00;52240.72;5071594;28;19967;-70
2023/06/18 01:59:09;;;;;;;;;;;;;;;-140.72;0.00;52238.69;5074683;28;19964;-70
2023/06/18 02:01:35;;;;;;;;;;;;;;;-140.72;0.00;52240.72;5067923;28;20411;-70
2023/06/18 02:04:00;;;;;;;;;;;;;;;-140.72;0.00;52214.34;5074234;28;19921;-70
2023/06/18 02:06:26;;;;;;;;;;;;;;;-140.72;0.00;52228.53;5069969;28;19928;-70
2023/06/18 02:08:51;;;;;;;;;;;;;;;-140.72;0.00;52273.19;5071099;28;20388;-70
2023/06/18 02:11:16;;;;;;;;;;;;;;;-140.72;0.00;52263.03;5070656;28;19938;-70
2023/06/18 02:13:41;;;;;;;;;;;;;;;-140.72;0.00;52238.69;5070934;28;19982;-70
2023/06/18 02:16:06;;;;;;;;;;;;;;;-140.72;0.00;52208.25;5068684;28;19924;-70
2023/06/18 02:18:32;;;;;;;;;;;;;;;-140.72;0.00;52210.28;5068463;28;19920;-70
2023/06/18 02:20:57;;;;;;;;;;;;;;;-140.72;0.00;52185.94;5070242;28;19926;-70
2023/06/18 02:23:23;;;;;;;;;;;;;;;-140.72;0.00;52210.28;5070512;28;20027;-70
2023/06/18 02:25:48;;;;;;;;;;;;;;;-140.72;0.00;52214.34;5071874;28;19962;-70
2023/06/18 02:28:13;;;;;;;;;;;;;;;-140.72;0.00;52238.69;5070025;28;19921;-70
2023/06/18 02:30:38;;;;;;;;;;;;;;;-140.72;0.00;52232.59;5070996;28;19931;-70
2023/06/18 02:33:06;;;;;;;;;;;;;;;-140.72;0.00;52226.50;5072589;28;19982;-70
2023/06/18 02:35:32;;;;;;;;;;;;;;;-140.72;0.00;52248.81;5077379;28;19967;-70
2023/06/18 02:37:58;;;;;;;;;;;;;;;-140.72;0.00;52252.88;5071812;28;20306;-69
2023/06/18 02:40:23;;;;;;;;;;;;;;;-140.72;0.00;52248.81;5069218;28;20019;-70
2023/06/18 02:42:48;;;;;;;;;;;;;;;-140.72;0.00;52242.75;5068412;28;19931;-70
2023/06/18 02:45:13;;;;;;;;;;;;;;;-140.72;0.00;52271.16;5070631;28;20003;-70
2023/06/18 02:47:39;;;;;;;;;;;;;;;-140.72;0.00;52248.81;5071345;28;19925;-70
2023/06/18 02:50:05;;;;;;;;;;;;;;;-140.72;0.00;52263.03;5071490;28;20024;-70
2023/06/18 02:52:30;;;;;;;;;;;;;;;-140.72;0.00;52248.81;5070485;28;19956;-70
2023/06/18 02:54:55;;;;;;;;;;;;;;;-140.72;0.00;52234.63;5070241;28;20385;-69
2023/06/18 02:57:20;;;;;;;;;;;;;;;-140.72;0.00;52252.88;5070462;28;20015;-70
2023/06/18 02:59:46;;;;;;;;;;;;;;;-140.72;0.00;52206.22;5071660;28;19974;-70
2023/06/18 03:02:12;;;;;;;;;;;;;;;-140.72;0.72;52271.16;5071664;28;20007;-70
2023/06/18 03:04:37;;;;;;;;;;;;;;;-140.72;4.05;52254.91;5072563;28;19935;-70
2023/06/18 03:07:03;;;;;;;;;;;;;;;-140.72;23.13;52232.59;5070109;28;20267;-70
2023/06/18 03:09:28;;;;;;;;;;;;;;;-140.72;35.97;52244.78;5071072;28;20431;-70
2023/06/18 03:11:53;;;;;;;;;;;;;;;-140.72;52.80;52234.63;5070198;28;20010;-70
2023/06/18 03:14:21;;;;;;;;;;;;;;;-140.72;57.56;52248.81;5070447;28;20369;-70
2023/06/18 03:16:46;;;;;;;;;;;;;;;-140.72;85.95;52263.03;5067654;28;19936;-70
2023/06/18 03:19:12;;;;;;;;;;;;;;;-140.72;85.45;52232.59;5069142;28;20012;-70
2023/06/18 03:21:37;;;;;;;;;;;;;;;-140.72;93.98;52248.81;5070430;28;19921;-70
2023/06/18 03:24:02;;;;;;;;;;;;;;;-140.72;96.53;52254.91;5071736;28;20289;-71
2023/06/18 03:26:29;;;;;;;;;;;;;;;-140.72;100.00;52285.34;5068974;28;20409;-71
2023/06/18 03:28:54;;;;;;;;;;;;;;;-140.72;100.00;52258.97;5068613;28;20019;-71
2023/06/18 03:31:21;;;;;;;;;;;;;;;-140.72;100.00;52261.00;5071093;28;19984;-71
2023/06/18 03:33:46;;;;;;;;;;;;;;;-140.72;100.00;52267.09;5072527;28;19921;-71
2023/06/18 03:36:17;;;;;;;;;;;;;;;-140.72;100.00;52248.81;5069110;28;20005;-71
2023/06/18 03:38:42;;;;;;;;;;;;;;;-140.72;100.00;52256.94;5068228;28;19928;-71
2023/06/18 03:41:08;;;;;;;;;;;;;;;-140.72;100.00;52261.00;5067750;28;20313;-71
2023/06/18 03:43:33;;;;;;;;;;;;;;;-140.72;100.00;52285.34;5071281;28;20335;-71
2023/06/18 03:45:58;;;;;;;;;;;;;;;-140.72;100.00;52273.19;5068430;28;19920;-71
2023/06/18 03:48:25;;;;;;;;;;;;;;;-140.72;100.00;52289.41;5070359;28;19920;-71
2023/06/18 03:50:50;;;;;;;;;;;;;;;-140.72;100.00;52289.41;5069473;28;19920;-71
2023/06/18 03:53:15;;;;;;;;;;;;;;;-140.72;100.00;52277.22;5067250;28;19978;-71
2023/06/18 03:55:41;;;;;;;;;;;;;;;-140.72;100.00;52293.47;5068833;28;19971;-71
2023/06/18 03:58:06;;;;;;;;;;;;;;;-140.72;100.00;52265.06;5073310;28;19928;-71
2023/06/18 04:00:32;;;;;;;;;;;;;;;-140.72;100.00;52275.19;5068073;28;19933;-71
2023/06/18 04:02:57;;;;;;;;;;;;;;;-140.72;100.00;52238.69;5070645;28;19920;-70
2023/06/18 04:05:23;;;;;;;;;;;;;;;-140.72;100.00;52277.22;5070713;28;19943;-71
2023/06/18 04:07:48;;;;;;;;;;;;;;;-140.72;100.00;52283.31;5067967;28;19921;-71
2023/06/18 04:10:13;;;;;;;;;;;;;;;-140.72;100.00;52263.03;5068168;28;19923;-71
2023/06/18 04:12:39;;;;;;;;;;;;;;;-140.72;100.00;52291.44;5071859;28;19924;-71
2023/06/18 04:15:04;;;;;;;;;;;;;;;-140.72;100.00;52283.31;5072608;28;20396;-71
2023/06/18 04:17:37;;;;;;;;;;;;;;;-140.72;100.00;52216.34;5072954;28;20411;-71
2023/06/18 04:20:05;;;;;;;;;;;;;;;-140.72;100.00;52230.56;5072692;28;19917;-71
2023/06/18 04:22:30;;;;;;;;;;;;;;;-140.72;100.00;52281.28;5076171;28;19932;-71
2023/06/18 04:24:55;;;;;;;;;;;;;;;-140.72;100.00;52248.81;5080963;28;19973;-69
2023/06/18 04:27:20;;;;;;;;;;;;;;;-140.72;100.00;52269.13;5069486;28;19969;-69
2023/06/18 04:29:45;;;;;;;;;;;;;;;-140.72;100.00;52252.88;5066659;28;20069;-69
2023/06/18 04:32:11;;;;;;;;;;;;;;;-140.72;100.00;52256.94;5066517;28;19983;-69
2023/06/18 04:34:36;;;;;;;;;;;;;;;-140.72;100.00;52297.53;5071052;28;20348;-71
2023/06/18 04:37:02;;;;;;;;;;;;;;;-140.72;100.00;52283.31;5067760;28;19928;-69
2023/06/18 04:39:27;;;;;;;;;;;;;;;-140.72;100.00;52269.13;5068630;28;19920;-69
2023/06/18 04:41:52;;;;;;;;;;;;;;;-140.72;100.00;52250.84;5068956;28;19927;-69
2023/06/18 04:44:18;;;;;;;;;;;;;;;-140.72;100.00;52228.53;5068729;28;19979;-69
2023/06/18 04:46:43;;;;;;;;;;;;;;;-140.72;100.00;52252.88;5068112;28;19920;-70
2023/06/18 04:49:08;;;;;;;;;;;;;;;-140.72;100.00;52226.50;5064440;28;20355;-70
2023/06/18 04:51:34;;;;;;;;;;;;;;;-140.72;100.00;52244.78;5071139;28;20059;-70
2023/06/18 04:53:59;;;;;;;;;;;;;;;-140.72;100.00;52226.50;5071273;28;19924;-70
2023/06/18 04:56:24;;;;;;;;;;;;;;;-140.72;100.00;52242.75;5067530;28;19925;-69
2023/06/18 04:58:49;;;;;;;;;;;;;;;-140.72;100.00;52206.22;5065080;28;19924;-70
2023/06/18 05:01:15;;;;;;;;;;;;;;;-140.72;100.00;52226.50;5068502;28;19947;-70
2023/06/18 05:03:40;;;;;;;;;;;;;;;-140.72;100.00;52222.44;5071566;28;19959;-70
2023/06/18 05:06:06;;;;;;;;;;;;;;;-140.72;100.00;52173.75;5071749;28;19969;-70
2023/06/18 05:08:31;;;;;;;;;;;;;;;-140.72;100.00;52204.19;5067148;28;19921;-70
2023/06/18 05:10:56;;;;;;;;;;;;;;;-140.72;100.00;52196.06;5068990;28;19927;-70
2023/06/18 05:13:21;;;;;;;;;;;;;;;-140.72;100.00;52151.44;5067681;28;20001;-70
2023/06/18 05:15:47;;;;;;;;;;;;;;;-140.72;92.48;52189.97;5068471;28;19993;-70
2023/06/18 05:18:12;;;;;;;;;;;;;;;-140.72;79.04;52155.50;5070413;28;19936;-70
2023/06/18 05:20:37;;;;;;;;;;;;;;;-140.72;62.04;52194.03;5071400;28;19921;-69
2023/06/18 05:23:02;;;;;;;;;;;;;;;-140.72;41.74;52192.00;5068173;28;19928;-70
2023/06/18 05:25:27;;;;;;;;;;;;;;;-140.72;46.25;52116.94;5072572;28;20421;-70
2023/06/18 05:27:53;;;;;;;;;;;;;;;-140.72;24.64;52139.25;5068772;28;20288;-70
2023/06/18 05:30:18;;;;;;;;;;;;;;;-140.72;29.37;52187.97;5080659;28;20266;-70
2023/06/18 05:32:43;;;;;;;;;;;;;;;-140.72;29.69;52177.81;5071354;28;19924;-70
2023/06/18 05:35:09;;;;;;;;;;;;;;;-140.72;30.03;52167.66;5071680;28;19928;-70
2023/06/18 05:37:34;;;;;;;;;;;;;;;-140.72;20.11;52137.22;5066925;28;19943;-70
2023/06/18 05:40:00;;;;;;;;;;;;;;;-140.72;18.40;52165.63;5070744;28;19985;-70
2023/06/18 05:42:26;;;;;;;;;;;;;;;-140.72;0.80;52133.16;5072191;28;19970;-69
2023/06/18 05:44:51;;;;;;;;;;;;;;;-140.72;1.73;52171.72;5068191;28;20312;-71
2023/06/18 05:47:16;;;;;;;;;;;;;;;-140.72;7.33;52163.59;5072679;28;20391;-71
2023/06/18 05:49:41;;;;;;;;;;;;;;;-140.72;0.00;52149.41;5064917;28;20262;-71
2023/06/18 05:52:07;;;;;;;;;;;;;;;-140.72;0.00;52153.47;5070577;28;20327;-70
2023/06/18 05:54:32;;;;;;;;;;;;;;;-140.72;6.56;52175.78;5071588;28;19916;-70
2023/06/18 05:56:57;;;;;;;;;;;;;;;-140.72;17.23;52204.19;5070706;28;20377;-70
2023/06/18 05:59:22;;;;;;;;;;;;;;;-140.72;18.44;52198.09;5069549;28;19935;-70
2023/06/18 06:01:48;;;;;;;;;;;;;;;-140.72;18.82;52169.69;5068438;28;19921;-70
2023/06/18 06:04:13;;;;;;;;;;;;;;;-140.72;27.27;52171.72;5067064;28;19921;-70
2023/06/18 06:06:38;;;;;;;;;;;;;;;-140.72;17.42;52183.91;5068065;28;20433;-70
2023/06/18 06:09:03;;;;;;;;;;;;;;;-140.72;0.00;52185.94;5070202;28;20011;-70
2023/06/18 06:11:28;;;;;;;;;;;;;;;-140.72;0.00;52167.66;5070121;28;19964;-70
2023/06/18 06:13:54;;;;;;;;;;;;;;;-140.72;0.00;52177.81;5068026;28;19920;-70
2023/06/18 06:16:19;;;;;;;;;;;;;;;-140.72;0.00;52206.22;5066826;28;19928;-70
2023/06/18 06:18:45;;;;;;;;;;;;;;;-140.72;0.00;52192.00;5069308;28;19928;-70
2023/06/18 06:21:10;;;;;;;;;;;;;;;-140.72;0.00;52173.75;5069811;28;20032;-70
2023/06/18 06:23:35;;;;;;;;;;;;;;;-140.72;0.00;52145.34;5068191;28;19997;-71
2023/06/18 06:26:01;;;;;;;;;;;;;;;-140.72;0.00;52137.22;5068415;28;20341;-72
2023/06/18 06:28:26;;;;;;;;;;;;;;;-140.72;0.00;52131.16;5071045;28;19924;-71
2023/06/18 06:30:52;;;;;;;;;;;;;;;-140.72;0.00;52153.47;5070277;28;19963;-78
2023/06/18 06:33:18;;;;;;;;;;;;;;;-140.72;0.00;52155.50;5069321;28;19974;-78
2023/06/18 06:35:43;;;;;;;;;;;;;;;-140.72;0.00;52090.56;5066568;28;19988;-70
2023/06/18 06:38:08;;;;;;;;;;;;;;;-140.72;0.00;52100.72;5063883;28;19929;-72
2023/06/18 06:40:34;;;;;;;;;;;;;;;-140.72;0.00;52098.69;5061971;28;19948;-71
2023/06/18 06:42:59;;;;;;;;;;;;;;;-140.72;0.00;52094.63;5066071;28;19926;-71
2023/06/18 06:45:25;;;;;;;;;;;;;;;-140.72;0.00;52098.69;5064765;28;20032;-72
2023/06/18 06:47:50;;;;;;;;;;;;;;;-140.72;0.00;52131.16;5066374;28;19920;-71
2023/06/18 06:50:15;;;;;;;;;;;;;;;-140.72;0.00;52102.75;5068233;28;20020;-71
2023/06/18 06:52:41;;;;;;;;;;;;;;;-140.72;0.00;52129.13;5068969;28;20094;-71
2023/06/18 06:55:06;;;;;;;;;;;;;;;-140.72;0.00;52127.09;5067457;28;19971;-70
2023/06/18 06:57:31;;;;;;;;;;;;;;;-140.72;0.00;52127.09;5065799;28;19990;-71
2023/06/18 06:59:57;;;;;;;;;;;;;;;-140.72;0.00;52151.44;5065765;28;19924;-71
2023/06/18 07:02:22;;;;;;;;;;;;;;;-140.72;0.00;52129.13;5063529;28;20094;-71
2023/06/18 07:04:48;;;;;;;;;;;;;;;-140.72;0.00;52141.28;5067065;28;19921;-72
2023/06/18 07:07:16;;;;;;;;;;;;;;;-140.72;0.00;52127.09;5065822;28;19929;-72
2023/06/18 07:09:41;;;;;;;;;;;;;;;-140.72;0.00;52108.81;5065788;28;20031;-71
2023/06/18 07:12:07;;;;;;;;;;;;;;;-140.72;0.00;52110.84;5062641;28;20019;-71
2023/06/18 07:14:32;;;;;;;;;;;;;;;-140.72;0.00;52159.56;5069045;28;19924;-71
2023/06/18 07:16:58;;;;;;;;;;;;;;;-140.72;0.00;52133.16;5065932;28;20034;-71
2023/06/18 07:19:23;;;;;;;;;;;;;;;-140.72;0.00;52127.09;5066723;28;20061;-71
2023/06/18 07:21:50;;;;;;;;;;;;;;;-140.72;0.00;52137.22;5065636;28;20174;-74
2023/06/18 07:24:15;;;;;;;;;;;;;;;-140.72;0.00;52133.16;5067120;28;19920;-74
2023/06/18 07:26:41;;;;;;;;;;;;;;;-140.72;0.00;52086.50;5071447;28;20150;-75
2023/06/18 07:29:06;;;;;;;;;;;;;;;-140.72;0.00;52123.03;5069942;28;19932;-76
2023/06/18 07:31:31;;;;;;;;;;;;;;;-140.72;0.00;52141.28;5069192;28;19925;-77
2023/06/18 07:33:57;;;;;;;;;;;;;;;-140.72;0.00;52100.72;5082733;28;19920;-75
2023/06/18 07:36:22;;;;;;;;;;;;;;;-140.72;0.00;52189.97;5072446;28;19928;-76
2023/06/18 07:38:48;;;;;;;;;;;;;;;-140.72;0.00;52123.03;5067975;28;20069;-76
2023/06/18 07:41:13;;;;;;;;;;;;;;;-140.72;0.00;52052.00;5063837;28;19928;-75
2023/06/18 07:43:40;;;;;;;;;;;;;;;-140.72;0.00;52094.63;5064988;28;19934;-77
2023/06/18 07:46:05;;;;;;;;;;;;;;;-140.72;0.00;52094.63;5066641;28;19921;-76
2023/06/18 07:48:31;;;;;;;;;;;;;;;-140.72;0.00;52066.22;5068537;28;20312;-75
2023/06/18 07:50:56;;;;;;;;;;;;;;;-140.72;0.00;52003.31;5069645;28;20385;-74
2023/06/18 07:53:21;;;;;;;;;;;;;;;-140.72;0.00;52041.88;5074661;28;19920;-74
2023/06/18 07:55:47;;;;;;;;;;;;;;;-140.72;0.00;52045.94;5083245;28;20270;-75
2023/06/18 07:58:12;;;;;;;;;;;;;;;-140.72;0.00;52056.06;5071624;28;19920;-74
2023/06/18 08:00:37;;;;;;;;;;;;;;;-140.72;0.00;52058.09;5070574;28;19999;-75
2023/06/18 08:03:02;;;;;;;;;;;;;;;-140.72;0.00;52062.16;5074339;28;21201;-74
2023/06/18 08:05:28;;;;;;;;;;;;;;;-140.72;0.00;52062.16;5068831;28;20050;-73
2023/06/18 08:07:53;;;;;;;;;;;;;;;-140.72;0.00;52009.41;5073865;28;19921;-74
2023/06/18 08:10:18;;;;;;;;;;;;;;;-140.72;0.00;52029.69;5069059;28;20015;-73
2023/06/18 08:12:43;;;;;;;;;;;;;;;-140.72;0.00;52021.56;5070573;28;20322;-75
2023/06/18 08:15:09;;;;;;;;;;;;;;;-140.72;0.00;52047.97;5069811;28;19924;-73
2023/06/18 08:17:35;;;;;;;;;;;;;;;-140.72;0.00;51995.19;5067753;28;19961;-73
2023/06/18 08:20:00;;;;;;;;;;;;;;;-140.72;0.00;51997.22;5066938;28;19925;-73
2023/06/18 08:22:26;;;;;;;;;;;;;;;-140.72;0.00;51989.13;5085235;28;19936;-74
2023/06/18 08:24:51;;;;;;;;;;;;;;;-140.72;0.00;51981.00;5068315;28;20367;-72
2023/06/18 08:27:16;;;;;;;;;;;;;;;-140.72;0.00;51974.91;5067600;28;19920;-75
2023/06/18 08:29:41;;;;;;;;;;;;;;;-140.72;0.00;51987.09;5069638;28;20290;-75
2023/06/18 08:32:07;;;;;;;;;;;;;;;-140.72;0.00;51956.66;5069987;28;20297;-76
2023/06/18 08:34:32;;;;;;;;;;;;;;;-140.72;0.00;51987.09;5066744;28;19925;-74
2023/06/18 08:36:58;;;;;;;;;;;;;;;-140.72;0.00;51997.22;5084835;28;19927;-75
2023/06/18 08:39:23;;;;;;;;;;;;;;;-140.72;0.00;51981.00;5069952;28;19993;-75
2023/06/18 08:41:49;;;;;;;;;;;;;;;-140.72;0.00;51960.72;5070143;28;19963;-76
2023/06/18 08:44:14;;;;;;;;;;;;;;;-140.72;0.00;51944.47;5068701;28;19956;-74
2023/06/18 08:46:41;;;;;;;;;;;;;;;-140.72;0.00;51981.00;5070581;28;20023;-76
2023/06/18 08:49:35;;;;;;;;;;;;;;;-140.72;0.00;51989.13;5070761;28;19920;-77
2023/06/18 08:52:05;;;;;;;;;;;;;;;-140.72;0.00;51995.19;5082564;28;19921;-74
2023/06/18 08:54:34;;;;;;;;;;;;;;;-140.72;0.00;51974.91;5078121;28;19920;-76
2023/06/18 08:57:09;;;;;;;;;;;;;;;-140.72;0.00;51950.56;5073024;28;19924;-75
2023/06/18 08:59:36;;;;;;;;;;;;;;;-140.72;0.00;51948.53;5067718;28;19967;-75
2023/06/18 09:02:03;;;;;;;;;;;;;;;-140.72;0.00;51916.06;5070189;28;19920;-76
2023/06/18 09:04:29;;;;;;;;;;;;;;;-140.72;0.00;51954.63;5064513;28;20003;-75
2023/06/18 09:06:59;;;;;;;;;;;;;;;-140.72;0.00;51946.50;5064561;28;20023;-75
2023/06/18 09:09:25;;;;;;;;;;;;;;;-140.72;0.00;51942.44;5071654;28;19920;-75
2023/06/18 09:11:50;;;;;;;;;;;;;;;-140.72;0.00;51910.00;5068967;28;20017;-75
2023/06/18 09:14:15;;;;;;;;;;;;;;;-140.72;0.00;51910.00;5073071;28;20003;-74
2023/06/18 09:16:41;;;;;;;;;;;;;;;-140.72;0.00;51952.59;5068540;28;20353;-74
2023/06/18 09:19:06;;;;;;;;;;;;;;;-140.72;0.00;51938.41;5070838;28;20353;-74
2023/06/18 09:21:37;;;;;;;;;;;;;;;-140.72;0.00;51972.88;5070423;28;20427;-74
2023/06/18 09:24:02;;;;;;;;;;;;;;;-140.72;0.00;51936.38;5075398;28;19925;-77
2023/06/18 09:26:33;;;;;;;;;;;;;;;-140.72;0.00;51970.84;5075051;28;20441;-77
2023/06/18 09:29:04;;;;;;;;;;;;;;;-140.72;0.00;51928.25;5074373;28;20074;-77
2023/06/18 09:31:29;;;;;;;;;;;;;;;-140.72;0.00;51958.69;5070189;28;19959;-77
2023/06/18 09:33:55;;;;;;;;;;;;;;;-140.72;0.00;51985.06;5067648;28;19921;-74
2023/06/18 09:36:20;;;;;;;;;;;;;;;-140.72;0.00;51970.84;5069544;28;20610;-75
2023/06/18 09:38:45;;;;;;;;;;;;;;;-140.72;0.00;51944.47;5073996;28;20012;-71
2023/06/18 09:41:17;;;;;;;;;;;;;;;-140.72;0.00;51997.22;5072462;28;19933;-70
2023/06/18 09:43:43;;;;;;;;;;;;;;;-140.72;0.00;51978.97;5066756;28;19920;-72
2023/06/18 09:46:09;;;;;;;;;;;;;;;-140.72;0.00;51987.09;5064527;28;20011;-71
2023/06/18 09:48:35;;;;;;;;;;;;;;;-140.72;0.00;51942.44;5070472;28;19974;-71
2023/06/18 09:51:01;;;;;;;;;;;;;;;-140.72;0.00;51966.81;5068728;28;19952;-71
2023/06/18 09:53:26;;;;;;;;;;;;;;;-140.72;0.00;51997.22;5067201;28;20388;-71
2023/06/18 09:55:51;;;;;;;;;;;;;;;-140.72;0.00;51981.00;5069934;28;19921;-70
2023/06/18 09:58:16;;;;;;;;;;;;;;;-140.72;0.00;52003.31;5070581;28;19924;-71
2023/06/18 10:00:41;;;;;;;;;;;;;;;-140.72;0.00;51985.06;5068198;28;19928;-72
2023/06/18 10:03:07;;;;;;;;;;;;;;;-140.72;0.00;52023.59;5069765;28;19927;-74
2023/06/18 10:05:35;;;;;;;;;;;;;;;-140.72;0.00;52025.63;5070545;28;20986;-71
2023/06/18 10:08:06;;;;;;;;;;;;;;;-140.72;0.00;52025.63;5069395;28;19920;-72
2023/06/18 10:10:33;;;;;;;;;;;;;;;-140.72;0.00;52045.94;5066258;28;19927;-72
2023/06/18 10:13:00;;;;;;;;;;;;;;;-140.72;0.00;52049.97;5069138;28;20058;-73
2023/06/18 10:15:26;;;;;;;;;;;;;;;-140.72;0.00;52060.13;5070870;28;19990;-73
2023/06/18 10:17:55;;;;;;;;;;;;;;;-140.72;0.00;52076.34;5069164;28;20384;-72
2023/06/18 10:20:22;;;;;;;;;;;;;;;-140.72;0.00;52074.34;5069989;28;19927;-71
2023/06/18 10:22:59;;;;;;;;;;;;;;;-140.72;0.00;52074.34;5074952;28;20366;-72
2023/06/18 10:25:25;;;;;;;;;;;;;;;-140.72;0.00;52078.38;5073431;28;19928;-73
2023/06/18 10:27:50;;;;;;;;;;;;;;;-140.72;0.00;52082.44;5072202;28;19925;-72
2023/06/18 10:30:16;;;;;;;;;;;;;;;-140.72;0.00;52019.56;5075705;28;19947;-73
2023/06/18 10:32:46;;;;;;;;;;;;;;;-140.72;0.00;52021.56;5071248;28;19931;-73
2023/06/18 10:35:12;;;;;;;;;;;;;;;-140.72;0.00;52029.69;5076553;28;20286;-76
2023/06/18 10:37:39;;;;;;;;;;;;;;;-140.72;0.00;51997.22;5072029;28;20350;-74
2023/06/18 10:40:05;;;;;;;;;;;;;;;-140.72;0.00;52005.34;5070372;28;20443;-73
2023/06/18 10:42:31;;;;;;;;;;;;;;;-140.72;0.00;51974.91;5067885;28;19928;-73
2023/06/18 10:44:58;;;;;;;;;;;;;;;-140.72;0.00;52054.03;5069713;28;19920;-74
2023/06/18 10:47:24;;;;;;;;;;;;;;;-140.72;0.00;51991.16;5071343;28;19924;-73
2023/06/18 10:50:02;;;;;;;;;;;;;;;-140.72;0.00;51985.06;5069952;28;20396;-73
2023/06/18 10:52:31;;;;;;;;;;;;;;;-140.72;0.00;51968.81;5070319;28;19924;-71
2023/06/18 10:55:08;;;;;;;;;;;;;;;-140.72;0.00;51962.75;5073472;28;19928;-72
2023/06/18 10:57:37;;;;;;;;;;;;;;;-140.72;0.00;51966.81;5070661;28;20394;-72
2023/06/18 11:00:13;;;;;;;;;;;;;;;-140.72;0.00;51962.75;5068669;28;19959;-72
2023/06/18 11:02:39;;;;;;;;;;;;;;;-140.72;0.00;51999.25;5084774;28;19920;-73
2023/06/18 11:05:05;;;;;;;;;;;;;;;-140.72;0.00;51952.59;5072585;28;19920;-72
2023/06/18 11:07:31;;;;;;;;;;;;;;;-140.72;0.00;51993.19;5073388;28;19935;-74
2023/06/18 11:09:58;;;;;;;;;;;;;;;-140.72;0.00;51974.91;5070986;28;19935;-73
2023/06/18 11:12:27;;;;;;;;;;;;;;;-140.72;0.00;51989.13;5070324;28;20176;-72
2023/06/18 11:15:05;;;;;;;;;;;;;;;-140.72;0.00;51958.69;5067417;28;19932;-74
2023/06/18 11:17:31;;;;;;;;;;;;;;;-140.72;0.00;51924.19;5070799;28;20018;-74
2023/06/18 11:19:57;;;;;;;;;;;;;;;-140.72;0.00;51993.19;5068552;28;20609;-73
2023/06/18 11:22:23;;;;;;;;;;;;;;;-140.72;0.00;52001.28;5071556;28;20019;-73
2023/06/18 11:24:48;;;;;;;;;;;;;;;-140.72;0.00;51964.78;5070565;28;19920;-73
2023/06/18 11:27:14;;;;;;;;;;;;;;;-140.72;0.00;51972.88;5084342;28;19927;-73
2023/06/18 11:29:40;;;;;;;;;;;;;;;-140.72;0.00;51981.00;5071787;28;20339;-73
2023/06/18 11:32:11;;;;;;;;;;;;;;;-140.72;0.00;52013.47;5080586;28;19923;-73
2023/06/18 11:34:40;;;;;;;;;;;;;;;-140.72;0.00;52001.28;5067384;28;20105;-73
2023/06/18 11:37:11;;;;;;;;;;;;;;;-140.72;0.00;52001.28;5070905;28;19934;-74
2023/06/18 11:39:38;;;;;;;;;;;;;;;-140.72;0.00;51976.94;5072014;28;19928;-69
2023/06/18 11:42:13;;;;;;;;;;;;;;;-140.72;0.00;51948.53;5069853;28;20283;-69
2023/06/18 11:44:56;;;;;;;;;;;;;;;-140.72;0.00;51983.03;5071184;28;19934;-69
2023/06/18 11:47:22;;;;;;;;;;;;;;;-140.72;0.00;52037.81;5078013;28;20334;-70
2023/06/18 11:49:48;;;;;;;;;;;;;;;-140.72;0.00;51983.03;5076538;28;19969;-70
2023/06/18 11:52:17;;;;;;;;;;;;;;;-140.72;0.00;52007.38;5069096;28;19920;-69
2023/06/18 11:54:42;;;;;;;;;;;;;;;-140.72;0.00;52031.72;5071672;28;20023;-69
2023/06/18 11:57:12;;;;;;;;;;;;;;;-140.72;0.00;51997.22;5072793;28;19999;-69
2023/06/18 11:59:40;;;;;;;;;;;;;;;-140.72;0.00;51995.19;5073568;28;19921;-69
2023/06/18 12:02:10;;;;;;;;;;;;;;;-140.72;0.00;51997.22;5074661;28;20107;-68
2023/06/18 12:04:35;;;;;;;;;;;;;;;-140.72;0.00;51985.06;5071629;28;20011;-69
2023/06/18 12:07:01;;;;;;;;;;;;;;;-140.72;0.00;51914.03;5072734;28;19959;-69
2023/06/18 12:09:30;;;;;;;;;;;;;;;-140.72;0.00;51956.66;5072909;28;19973;-68
2023/06/18 12:12:07;;;;;;;;;;;;;;;-140.72;0.00;51940.41;5070481;28;19924;-69
2023/06/18 12:14:47;;;;;;;;;;;;;;;-140.72;0.00;51956.66;5074091;28;20003;-71
2023/06/18 12:17:23;;;;;;;;;;;;;;;-140.72;0.00;51944.47;5071190;28;19989;-69
2023/06/18 12:19:52;;;;;;;;;;;;;;;-140.72;0.00;51950.56;5067397;28;19981;-69
2023/06/18 12:22:17;;;;;;;;;;;;;;;-140.72;0.00;51936.38;5070034;28;19999;-72
2023/06/18 12:24:43;;;;;;;;;;;;;;;-140.72;0.00;51926.22;5073024;28;20040;-71
2023/06/18 12:27:09;;;;;;;;;;;;;;;-140.72;0.00;51928.25;5071636;28;19920;-71
2023/06/18 12:29:34;;;;;;;;;;;;;;;-140.72;0.00;51901.88;5077071;28;20011;-76